Time;durP1;ratioP1;P1;durP2;ratioP2;P2;SDS_P1;SDS_P2;PMS_P1;PMS_P2;Temp;Humidity;BMP_temperature;BMP_pressure;BME280_temperature;BME280_humidity;BME280_pressure;Samples;Min_cycle;Max_cycle;Signal;HPM_P1;HPM_P2
2021/12/10 00:02:01;;;;;;;13.38;8.02;;;;;;;;;;5054439;28;20036;-40
2021/12/10 00:04:32;;;;;;;10.60;7.28;;;;;;;;;;5040535;28;20379;-40
2021/12/10 00:07:00;;;;;;;;;;;;;;;;;;5055194;28;20033;-40
2021/12/10 00:09:31;;;;;;;12.98;8.10;;;;;;;;;;5054287;28;19917;-40
2021/12/10 00:12:06;;;;;;;14.57;8.98;;;;;;;;;;5054325;28;20108;-40
2021/12/10 00:14:34;;;;;;;15.05;8.52;;;;;;;;;;5051885;28;20094;-40
2021/12/10 00:17:03;;;;;;;12.23;8.40;;;;;;;;;;5054541;28;20029;-40
2021/12/10 00:19:36;;;;;;;14.02;8.80;;;;;;;;;;5054645;28;20112;-40
2021/12/10 00:22:08;;;;;;;13.70;8.88;;;;;;;;;;5054950;28;20023;-40
2021/12/10 00:24:35;;;;;;;12.70;8.55;;;;;;;;;;5053935;28;20107;-40
2021/12/10 00:27:05;;;;;;;13.25;8.48;;;;;;;;;;5054430;28;20546;-40
2021/12/10 00:29:31;;;;;;;12.55;9.18;;;;;;;;;;5053774;28;20025;-40
2021/12/10 00:32:04;;;;;;;14.30;8.95;;;;;;;;;;5054048;28;20116;-40
2021/12/10 00:34:42;;;;;;;11.68;8.10;;;;;;;;;;5053722;28;20131;-40
2021/12/10 00:37:10;;;;;;;12.43;8.05;;;;;;;;;;5054674;28;20396;-40
2021/12/10 00:39:42;;;;;;;14.82;9.15;;;;;;;;;;5054408;28;20483;-40
2021/12/10 00:42:12;;;;;;;14.43;8.77;;;;;;;;;;5054412;28;20032;-40
2021/12/10 00:44:38;;;;;;;12.98;9.23;;;;;;;;;;5054448;28;20041;-40
2021/12/10 00:47:04;;;;;;;14.18;9.27;;;;;;;;;;5054222;28;20125;-40
2021/12/10 00:49:31;;;;;;;11.23;8.15;;;;;;;;;;5053736;28;20029;-40
2021/12/10 00:51:56;;;;;;;10.70;8.13;;;;;;;;;;5054429;28;20021;-40
2021/12/10 00:54:22;;;;;;;11.95;8.43;;;;;;;;;;5054401;28;20118;-40
2021/12/10 00:56:48;;;;;;;12.27;8.75;;;;;;;;;;5054001;28;20116;-40
2021/12/10 00:59:15;;;;;;;10.48;7.72;;;;;;;;;;5054289;28;20041;-40
2021/12/10 01:01:42;;;;;;;11.45;8.30;;;;;;;;;;5053951;28;20061;-40
2021/12/10 01:04:28;;;;;;;14.25;8.77;;;;;;;;;;5054335;28;20429;-39
2021/12/10 01:06:56;;;;;;;13.52;8.35;;;;;;;;;;5054045;28;20040;-40
2021/12/10 01:09:26;;;;;;;13.02;8.98;;;;;;;;;;5053821;28;20028;-39
2021/12/10 01:11:58;;;;;;;13.05;8.35;;;;;;;;;;5054066;28;20104;-40
2021/12/10 01:15:33;;;;;;;14.73;8.55;;;;;;;;;;5053763;28;20032;-40
2021/12/10 01:25:41;;;;;;;13.15;8.77;;;;;;;;;;5053909;28;20102;-40
2021/12/10 01:28:08;;;;;;;14.20;9.48;;;;;;;;;;5053738;28;20032;-40
2021/12/10 01:30:38;;;;;;;15.98;9.20;;;;;;;;;;5053725;28;20654;-40
2021/12/10 01:33:08;;;;;;;15.55;9.75;;;;;;;;;;5053648;28;20112;-40
2021/12/10 01:35:41;;;;;;;16.10;9.45;;;;;;;;;;5053206;28;20048;-40
2021/12/10 01:38:10;;;;;;;18.70;10.40;;;;;;;;;;5053277;28;20047;-40
2021/12/10 01:40:40;;;;;;;15.80;10.02;;;;;;;;;;5053510;28;20060;-40
2021/12/10 01:43:11;;;;;;;15.50;9.95;;;;;;;;;;5053514;28;20017;-39
2021/12/10 01:45:46;;;;;;;17.45;10.00;;;;;;;;;;5053407;28;20033;-40
2021/12/10 01:48:25;;;;;;;16.23;9.52;;;;;;;;;;5053177;28;20024;-40
2021/12/10 01:50:51;;;;;;;13.57;8.23;;;;;;;;;;5053048;28;20017;-39
2021/12/10 01:53:21;;;;;;;14.00;9.13;;;;;;;;;;5053278;28;20033;-40
2021/12/10 01:55:51;;;;;;;13.45;8.70;;;;;;;;;;5053200;28;20083;-40
2021/12/10 01:58:21;;;;;;;15.65;8.98;;;;;;;;;;5052953;28;20132;-40
2021/12/10 02:00:53;;;;;;;13.70;9.70;;;;;;;;;;5052089;28;20159;-40
2021/12/10 02:03:20;;;;;;;13.95;8.82;;;;;;;;;;5053202;28;20040;-40
2021/12/10 02:05:45;;;;;;;15.65;9.95;;;;;;;;;;5053170;28;20070;-40
2021/12/10 02:08:11;;;;;;;13.48;9.85;;;;;;;;;;5052655;28;20095;-41
2021/12/10 02:10:37;;;;;;;15.13;9.27;;;;;;;;;;5053019;28;20025;-40
2021/12/10 02:13:03;;;;;;;16.02;9.48;;;;;;;;;;5052993;28;20363;-40
2021/12/10 02:15:29;;;;;;;15.23;9.15;;;;;;;;;;5052922;28;20029;-40
2021/12/10 02:17:57;;;;;;;14.35;8.77;;;;;;;;;;5052777;28;20484;-40
2021/12/10 02:20:57;;;;;;;14.88;9.52;;;;;;;;;;5052794;28;20048;-40
2021/12/10 02:23:23;;;;;;;14.32;9.32;;;;;;;;;;5027345;28;20108;-40
2021/12/10 02:25:48;;;;;;;14.25;9.30;;;;;;;;;;5052503;28;20059;-40
2021/12/10 02:28:15;;;;;;;16.15;9.30;;;;;;;;;;5052795;28;20029;-39
2021/12/10 02:30:42;;;;;;;13.43;9.32;;;;;;;;;;5052610;28;20032;-40
2021/12/10 02:33:08;;;;;;;13.43;8.27;;;;;;;;;;5052703;28;20047;-40
2021/12/10 02:35:35;;;;;;;14.25;7.93;;;;;;;;;;5052301;28;20053;-40
2021/12/10 02:38:01;;;;;;;12.65;8.95;;;;;;;;;;5052186;28;20036;-40
2021/12/10 02:40:29;;;;;;;14.45;8.88;;;;;;;;;;5052252;28;20025;-39
2021/12/10 02:42:56;;;;;;;15.90;9.32;;;;;;;;;;5052221;28;20059;-40
2021/12/10 02:45:24;;;;;;;15.50;9.75;;;;;;;;;;5052594;28;20028;-40
2021/12/10 02:47:50;;;;;;;15.07;9.32;;;;;;;;;;5052561;28;20021;-39
2021/12/10 02:50:19;;;;;;;14.07;9.02;;;;;;;;;;5052434;28;20382;-40
2021/12/10 02:52:45;;;;;;;13.48;8.70;;;;;;;;;;5052402;28;20051;-40
2021/12/10 02:55:14;;;;;;;13.20;9.00;;;;;;;;;;5034773;28;20017;-40
2021/12/10 02:57:41;;;;;;;12.63;8.80;;;;;;;;;;5052170;28;20044;-40
2021/12/10 03:00:15;;;;;;;17.05;10.10;;;;;;;;;;5052400;28;20025;-40
2021/12/10 03:02:41;;;;;;;13.15;8.25;;;;;;;;;;5052287;28;20036;-40
2021/12/10 03:05:08;;;;;;;11.90;8.20;;;;;;;;;;5052386;28;20068;-40
2021/12/10 03:07:36;;;;;;;11.73;8.27;;;;;;;;;;5051954;28;20118;-41
2021/12/10 03:10:05;;;;;;;12.45;7.95;;;;;;;;;;5052326;28;20151;-40
2021/12/10 03:12:31;;;;;;;10.73;7.72;;;;;;;;;;5054055;28;20047;-40
2021/12/10 03:14:58;;;;;;;12.18;8.43;;;;;;;;;;5056277;28;20021;-40
2021/12/10 03:17:30;;;;;;;14.50;8.27;;;;;;;;;;5055891;28;20087;-40
2021/12/10 03:19:58;;;;;;;15.50;9.40;;;;;;;;;;5056077;28;20033;-40
2021/12/10 03:22:25;;;;;;;13.55;9.15;;;;;;;;;;5056140;28;20437;-40
2021/12/10 03:24:52;;;;;;;13.43;8.57;;;;;;;;;;5056107;28;20025;-40
2021/12/10 03:27:20;;;;;;;13.43;9.05;;;;;;;;;;5055785;28;20021;-40
2021/12/10 03:29:47;;;;;;;15.80;9.10;;;;;;;;;;5056097;28;20429;-40
2021/12/10 03:32:18;;;;;;;11.98;8.32;;;;;;;;;;5055696;28;20493;-40
2021/12/10 03:34:45;;;;;;;13.45;8.35;;;;;;;;;;5055737;28;20049;-40
2021/12/10 03:37:13;;;;;;;15.35;9.45;;;;;;;;;;5055497;28;20033;-40
2021/12/10 03:39:39;;;;;;;13.52;8.68;;;;;;;;;;5055862;28;20017;-40
2021/12/10 03:42:07;;;;;;;12.18;8.52;;;;;;;;;;5055852;28;20565;-40
2021/12/10 03:44:33;;;;;;;12.32;8.63;;;;;;;;;;5055787;28;20024;-40
2021/12/10 03:47:00;;;;;;;12.90;9.00;;;;;;;;;;5037565;28;20101;-40
2021/12/10 03:49:26;;;;;;;13.88;8.85;;;;;;;;;;5055740;28;20096;-40
2021/12/10 03:51:52;;;;;;;13.60;9.13;;;;;;;;;;5055387;28;20024;-40
2021/12/10 03:54:18;;;;;;;12.80;8.65;;;;;;;;;;5055691;28;20151;-40
2021/12/10 03:56:45;;;;;;;11.85;8.30;;;;;;;;;;5055207;28;20388;-40
2021/12/10 03:59:14;;;;;;;13.38;8.60;;;;;;;;;;5055216;28;20478;-40
2021/12/10 04:01:43;;;;;;;11.35;8.73;;;;;;;;;;5055436;28;20035;-40
2021/12/10 04:04:17;;;;;;;15.88;8.63;;;;;;;;;;5055057;28;20116;-40
2021/12/10 04:06:43;;;;;;;11.52;7.63;;;;;;;;;;5055439;28;20397;-40
2021/12/10 04:09:09;;;;;;;11.15;7.90;;;;;;;;;;5055179;28;20025;-40
2021/12/10 04:11:37;;;;;;;13.43;8.48;;;;;;;;;;5054980;28;20025;-40
2021/12/10 04:14:05;;;;;;;13.48;8.82;;;;;;;;;;5054944;28;20485;-40
2021/12/10 04:16:32;;;;;;;13.95;8.43;;;;;;;;;;5055113;28;20033;-41
2021/12/10 04:18:59;;;;;;;12.32;8.32;;;;;;;;;;5055118;28;20032;-41
2021/12/10 04:21:25;;;;;;;12.02;8.68;;;;;;;;;;5055072;28;20055;-40
2021/12/10 04:23:51;;;;;;;12.63;8.27;;;;;;;;;;5053801;28;20064;-40
2021/12/10 04:26:23;;;;;;;14.07;8.85;;;;;;;;;;5054696;28;20050;-40
2021/12/10 04:28:49;;;;;;;14.90;8.85;;;;;;;;;;5053406;28;20367;-40
2021/12/10 04:31:14;;;;;;;14.52;9.02;;;;;;;;;;5054910;28;20104;-40
2021/12/10 04:33:41;;;;;;;13.27;8.93;;;;;;;;;;5054599;28;20021;-40
2021/12/10 04:36:08;;;;;;;15.65;9.35;;;;;;;;;;5054325;28;20041;-40
2021/12/10 04:38:34;;;;;;;15.07;9.50;;;;;;;;;;5054275;28;20041;-40
2021/12/10 04:41:04;;;;;;;14.25;9.18;;;;;;;;;;5054468;28;20060;-40
2021/12/10 04:43:32;;;;;;;16.67;9.93;;;;;;;;;;5036912;28;20025;-40
2021/12/10 04:45:58;;;;;;;16.00;8.57;;;;;;;;;;5054633;28;20095;-40
2021/12/10 04:48:29;;;;;;;13.90;9.15;;;;;;;;;;5054535;28;20036;-39
2021/12/10 04:50:55;;;;;;;16.60;9.55;;;;;;;;;;5054262;28;20097;-40
2021/12/10 04:53:21;;;;;;;17.00;10.10;;;;;;;;;;5054383;28;20071;-40
2021/12/10 04:55:47;;;;;;;15.70;9.45;;;;;;;;;;5054140;28;20025;-40
2021/12/10 04:58:14;;;;;;;13.82;9.02;;;;;;;;;;5053959;28;20491;-40
2021/12/10 05:00:46;;;;;;;14.88;8.98;;;;;;;;;;5054228;28;20112;-39
2021/12/10 05:03:13;;;;;;;20.20;11.27;;;;;;;;;;5054079;28;20090;-40
2021/12/10 05:05:41;;;;;;;16.25;9.82;;;;;;;;;;5053733;28;20078;-40
2021/12/10 05:08:07;;;;;;;17.65;10.98;;;;;;;;;;5054188;28;20382;-40
2021/12/10 05:10:33;;;;;;;14.38;9.40;;;;;;;;;;5054161;28;20020;-41
2021/12/10 05:12:59;;;;;;;17.63;10.27;;;;;;;;;;5053999;28;20029;-40
2021/12/10 05:15:28;;;;;;;15.43;9.88;;;;;;;;;;5054070;28;20390;-40
2021/12/10 05:17:55;;;;;;;18.00;11.32;;;;;;;;;;5053880;28;20036;-40
2021/12/10 05:20:28;;;;;;;17.42;10.43;;;;;;;;;;5053917;28;20037;-40
2021/12/10 05:22:54;;;;;;;17.83;10.60;;;;;;;;;;5053699;28;20477;-40
2021/12/10 05:25:20;;;;;;;18.15;10.75;;;;;;;;;;5035683;28;20025;-40
2021/12/10 05:27:47;;;;;;;31.33;19.65;;;;;;;;;;5053494;28;20159;-40
2021/12/10 05:30:16;;;;;;;58.15;37.20;;;;;;;;;;5053687;28;20111;-40
2021/12/10 05:32:42;;;;;;;37.50;23.80;;;;;;;;;;5053461;28;20482;-40
2021/12/10 05:35:08;;;;;;;29.02;17.48;;;;;;;;;;5053278;28;20045;-40
2021/12/10 05:37:34;;;;;;;31.65;19.40;;;;;;;;;;5053086;28;20477;-40
2021/12/10 05:40:00;;;;;;;31.33;19.35;;;;;;;;;;5053563;28;20044;-40
2021/12/10 05:42:26;;;;;;;45.10;29.00;;;;;;;;;;5053225;28;20074;-40
2021/12/10 05:44:51;;;;;;;51.85;32.92;;;;;;;;;;5053220;28;20108;-40
2021/12/10 05:47:18;;;;;;;30.73;18.40;;;;;;;;;;5053353;28;20064;-40
2021/12/10 05:49:44;;;;;;;32.92;20.75;;;;;;;;;;5052992;28;20031;-40
2021/12/10 05:52:11;;;;;;;24.50;15.50;;;;;;;;;;5053362;28;20025;-40
2021/12/10 05:54:37;;;;;;;28.60;16.17;;;;;;;;;;5052981;28;20113;-40
2021/12/10 05:57:03;;;;;;;44.83;26.60;;;;;;;;;;5052802;28;20108;-40
2021/12/10 05:59:30;;;;;;;46.97;29.65;;;;;;;;;;5053141;28;20033;-40
2021/12/10 06:01:56;;;;;;;35.08;19.73;;;;;;;;;;5052838;28;20401;-40
2021/12/10 06:04:27;;;;;;;59.50;37.17;;;;;;;;;;5053177;28;20029;-40
2021/12/10 06:06:53;;;;;;;38.65;22.42;;;;;;;;;;5053143;28;20033;-40
2021/12/10 06:09:19;;;;;;;36.97;21.35;;;;;;;;;;5052664;28;20497;-40
2021/12/10 06:11:44;;;;;;;29.05;16.05;;;;;;;;;;5052955;28;20029;-40
2021/12/10 06:14:10;;;;;;;34.28;16.45;;;;;;;;;;5052629;28;20132;-40
2021/12/10 06:16:35;;;;;;;38.60;20.20;;;;;;;;;;5034644;28;20028;-40
2021/12/10 06:19:06;;;;;;;36.80;19.25;;;;;;;;;;5052736;28;20082;-40
2021/12/10 06:21:33;;;;;;;31.00;15.65;;;;;;;;;;5052783;28;20327;-40
2021/12/10 06:23:59;;;;;;;29.85;15.02;;;;;;;;;;5052230;28;20500;-40
2021/12/10 06:26:25;;;;;;;34.50;17.35;;;;;;;;;;5034554;28;20104;-40
2021/12/10 06:28:51;;;;;;;29.40;15.18;;;;;;;;;;5052660;28;20108;-40
2021/12/10 06:31:19;;;;;;;34.13;17.75;;;;;;;;;;5052371;28;20462;-41
2021/12/10 06:33:44;;;;;;;33.38;12.77;;;;;;;;;;5052383;28;20631;-40
2021/12/10 06:36:11;;;;;;;30.63;13.82;;;;;;;;;;5052233;28;20060;-40
2021/12/10 06:38:37;;;;;;;37.25;16.42;;;;;;;;;;5052503;28;20040;-40
2021/12/10 06:41:04;;;;;;;41.65;15.98;;;;;;;;;;5052190;28;20020;-40
2021/12/10 06:43:30;;;;;;;44.38;15.57;;;;;;;;;;5052510;28;20053;-40
2021/12/10 06:45:55;;;;;;;31.83;12.13;;;;;;;;;;5052160;28;20418;-40
2021/12/10 06:48:25;;;;;;;31.92;13.48;;;;;;;;;;5051534;28;20027;-40
2021/12/10 06:50:55;;;;;;;35.00;14.02;;;;;;;;;;5052151;28;20112;-40
2021/12/10 06:53:23;;;;;;;31.55;13.40;;;;;;;;;;5052430;28;20029;-40
2021/12/10 06:55:49;;;;;;;28.17;12.52;;;;;;;;;;5052362;28;20104;-40
2021/12/10 06:58:15;;;;;;;31.90;13.85;;;;;;;;;;5052197;28;20033;-40
2021/12/10 07:01:06;;;;;;;28.40;14.40;;;;;;;;;;5033968;28;20398;-40
2021/12/10 07:03:32;;;;;;;39.25;14.18;;;;;;;;;;5039122;28;20385;-40
2021/12/10 07:05:59;;;;;;;44.70;15.05;;;;;;;;;;5051915;28;20056;-40
2021/12/10 07:08:29;;;;;;;32.20;14.40;;;;;;;;;;5034244;28;20025;-39
2021/12/10 07:10:56;;;;;;;35.30;15.75;;;;;;;;;;5052148;28;20029;-40
2021/12/10 07:13:22;;;;;;;35.40;15.02;;;;;;;;;;5052228;28;20037;-40
2021/12/10 07:15:49;;;;;;;42.42;18.10;;;;;;;;;;5051907;28;20063;-40
2021/12/10 07:18:16;;;;;;;29.10;13.88;;;;;;;;;;5051754;28;20479;-40
2021/12/10 07:20:43;;;;;;;35.88;14.82;;;;;;;;;;5051875;28;20029;-40
2021/12/10 07:23:09;;;;;;;43.40;16.20;;;;;;;;;;5052178;28;20417;-40
2021/12/10 07:25:35;;;;;;;30.40;13.60;;;;;;;;;;5052109;28;20151;-40
2021/12/10 07:28:00;;;;;;;37.97;12.73;;;;;;;;;;5051889;28;20591;-40
2021/12/10 07:30:27;;;;;;;38.65;13.43;;;;;;;;;;5052013;28;20074;-40
2021/12/10 07:32:53;;;;;;;24.90;11.60;;;;;;;;;;5051727;28;20365;-40
2021/12/10 07:35:19;;;;;;;33.00;12.15;;;;;;;;;;5051599;28;20045;-40
2021/12/10 07:37:45;;;;;;;32.22;11.43;;;;;;;;;;5051527;28;20116;-40
2021/12/10 07:40:15;;;;;;;27.92;9.52;;;;;;;;;;5051714;28;20063;-40
2021/12/10 07:42:41;;;;;;;19.20;10.48;;;;;;;;;;5050024;28;20417;-40
2021/12/10 07:45:08;;;;;;;19.83;8.07;;;;;;;;;;5049734;28;20037;-39
2021/12/10 07:47:36;;;;;;;27.08;10.73;;;;;;;;;;5051178;28;20048;-40
2021/12/10 07:50:12;;;;;;;35.40;10.77;;;;;;;;;;5050992;28;20025;-40
2021/12/10 07:52:38;;;;;;;31.67;10.45;;;;;;;;;;5051456;28;20478;-39
2021/12/10 07:55:09;;;;;;;28.67;11.15;;;;;;;;;;5051322;28;20035;-40
2021/12/10 07:57:35;;;;;;;26.23;9.85;;;;;;;;;;5051168;28;20029;-40
2021/12/10 08:00:02;;;;;;;29.38;10.15;;;;;;;;;;5036041;28;20032;-40
2021/12/10 08:02:28;;;;;;;42.45;13.32;;;;;;;;;;5054929;28;20064;-40
2021/12/10 08:04:53;;;;;;;28.08;10.07;;;;;;;;;;5055353;28;20064;-39
2021/12/10 08:07:19;;;;;;;41.35;12.18;;;;;;;;;;5053853;28;20429;-40
2021/12/10 08:09:44;;;;;;;41.55;14.50;;;;;;;;;;5035723;28;20054;-40
2021/12/10 08:12:11;;;;;;;40.70;14.00;;;;;;;;;;5053680;28;20029;-39
2021/12/10 08:14:37;;;;;;;42.83;14.77;;;;;;;;;;5052689;28;20029;-39
2021/12/10 08:17:04;;;;;;;42.25;14.68;;;;;;;;;;5053357;28;20036;-45
2021/12/10 08:19:29;;;;;;;29.98;12.43;;;;;;;;;;5054169;28;20796;-45
2021/12/10 08:21:55;;;;;;;30.17;12.00;;;;;;;;;;5054641;28;20040;-42
2021/12/10 08:24:22;;;;;;;41.72;13.50;;;;;;;;;;5054875;28;20028;-39
2021/12/10 08:26:48;;;;;;;26.75;11.32;;;;;;;;;;5036403;28;20024;-42
2021/12/10 08:29:16;;;;;;;35.45;11.98;;;;;;;;;;5054800;28;20050;-42
2021/12/10 08:31:42;;;;;;;28.02;12.15;;;;;;;;;;5054499;28;20033;-38
2021/12/10 08:34:08;;;;;;;33.53;12.10;;;;;;;;;;5053984;28;20079;-42
2021/12/10 08:36:35;;;;;;;40.58;13.55;;;;;;;;;;5054396;28;20033;-38
2021/12/10 08:39:02;;;;;;;37.83;13.68;;;;;;;;;;5054236;28;20112;-47
2021/12/10 08:41:33;;;;;;;31.85;11.82;;;;;;;;;;5054356;28;20028;-43
2021/12/10 08:43:59;;;;;;;43.85;12.93;;;;;;;;;;5054347;28;20079;-42
2021/12/10 08:46:26;;;;;;;25.75;10.95;;;;;;;;;;5054482;28;20061;-39
2021/12/10 08:48:53;;;;;;;35.72;10.63;;;;;;;;;;5054195;28;20070;-48
2021/12/10 08:51:24;;;;;;;33.22;12.98;;;;;;;;;;5054105;28;20025;-46
2021/12/10 08:53:50;;;;;;;29.80;11.88;;;;;;;;;;5054369;28;20472;-42
2021/12/10 08:56:16;;;;;;;20.73;8.13;;;;;;;;;;5031215;28;20524;-43
2021/12/10 08:58:42;;;;;;;27.08;10.30;;;;;;;;;;5053678;28;20469;-43
2021/12/10 09:01:15;;;;;;;37.30;14.88;;;;;;;;;;5054120;28;20523;-50
2021/12/10 09:03:48;;;;;;;20.77;8.98;;;;;;;;;;5053648;28;20017;-44
2021/12/10 09:06:18;;;;;;;26.15;10.63;;;;;;;;;;5054144;28;20409;-45
2021/12/10 09:08:44;;;;;;;;;;;;;;;;;;5054247;28;20033;-43
2021/12/10 09:11:11;;;;;;;23.48;11.57;;;;;;;;;;5052925;28;19995;-46
2021/12/10 09:13:37;;;;;;;26.67;10.82;;;;;;;;;;5053440;28;20028;-45
2021/12/10 09:16:11;;;;;;;31.17;13.65;;;;;;;;;;5053658;28;20021;-43
2021/12/10 09:18:39;;;;;;;23.10;10.50;;;;;;;;;;5052526;28;20075;-46
2021/12/10 09:21:07;;;;;;;34.13;14.68;;;;;;;;;;5053162;28;20025;-39
2021/12/10 09:23:33;;;;;;;45.83;16.33;;;;;;;;;;5053751;28;20117;-43
2021/12/10 09:26:02;;;;;;;26.15;9.55;;;;;;;;;;5053370;28;20542;-45
2021/12/10 09:28:28;;;;;;;42.28;14.85;;;;;;;;;;5053234;28;20021;-43
2021/12/10 09:30:56;;;;;;;34.33;14.85;;;;;;;;;;5053200;28;20079;-42
2021/12/10 09:33:22;;;;;;;34.33;14.10;;;;;;;;;;5053807;28;20025;-41
2021/12/10 09:35:48;;;;;;;31.92;13.45;;;;;;;;;;5052683;28;20099;-43
2021/12/10 09:38:15;;;;;;;32.17;13.88;;;;;;;;;;5035694;28;20429;-45
2021/12/10 09:40:47;;;;;;;35.17;15.13;;;;;;;;;;5053108;28;20111;-46
2021/12/10 09:43:16;;;;;;;32.72;13.98;;;;;;;;;;5053153;28;20029;-47
2021/12/10 09:45:43;;;;;;;34.97;15.05;;;;;;;;;;5052722;28;20049;-44
2021/12/10 09:48:11;;;;;;;37.90;13.40;;;;;;;;;;5052746;28;20075;-40
2021/12/10 09:50:46;;;;;;;28.77;12.02;;;;;;;;;;5053077;28;20052;-42
2021/12/10 09:53:13;;;;;;;21.75;11.95;;;;;;;;;;5052895;28;20119;-39
2021/12/10 09:55:44;;;;;;;17.23;8.57;;;;;;;;;;5053225;28;20078;-42
2021/12/10 09:58:10;;;;;;;29.42;12.90;;;;;;;;;;5052459;28;20112;-38
2021/12/10 10:00:42;;;;;;;29.98;12.43;;;;;;;;;;5052383;28;20025;-45
2021/12/10 10:03:11;;;;;;;32.65;13.82;;;;;;;;;;5053121;28;20025;-46
2021/12/10 10:05:40;;;;;;;41.72;15.80;;;;;;;;;;5053060;28;20040;-46
2021/12/10 10:08:11;;;;;;;37.28;15.27;;;;;;;;;;5052934;28;20017;-47
2021/12/10 10:10:40;;;;;;;37.58;15.18;;;;;;;;;;5052927;28;20462;-45
2021/12/10 10:13:10;;;;;;;41.28;15.82;;;;;;;;;;5052904;28;20120;-45
2021/12/10 10:15:40;;;;;;;37.83;15.17;;;;;;;;;;5052816;28;20104;-42
2021/12/10 10:18:08;;;;;;;37.97;14.80;;;;;;;;;;5052330;28;20040;-45
2021/12/10 10:20:39;;;;;;;40.20;17.33;;;;;;;;;;5052577;28;20053;-39
2021/12/10 10:23:06;;;;;;;35.03;15.00;;;;;;;;;;5051605;28;20023;-46
2021/12/10 10:25:33;;;;;;;37.38;16.17;;;;;;;;;;5052369;28;20025;-44
2021/12/10 10:27:59;;;;;;;36.15;15.23;;;;;;;;;;5052237;28;20017;-44
2021/12/10 10:30:32;;;;;;;33.00;15.70;;;;;;;;;;5052297;28;20025;-41
2021/12/10 10:33:03;;;;;;;42.72;16.63;;;;;;;;;;5051846;28;20049;-40
2021/12/10 10:35:31;;;;;;;;;;;;;;;;;;5052399;28;20040;-46
2021/12/10 10:37:58;;;;;;;32.58;15.13;;;;;;;;;;5051950;28;19917;-43
2021/12/10 10:40:33;;;;;;;41.95;16.70;;;;;;;;;;5050412;28;20075;-43
2021/12/10 10:43:01;;;;;;;33.08;15.27;;;;;;;;;;5050687;28;20429;-48
2021/12/10 10:45:30;;;;;;;37.30;17.80;;;;;;;;;;5050515;28;20027;-41
2021/12/10 10:47:57;;;;;;;37.85;17.45;;;;;;;;;;5050833;28;20040;-41
2021/12/10 10:50:30;;;;;;;34.47;17.17;;;;;;;;;;5050655;28;20417;-41
2021/12/10 10:53:00;;;;;;;39.00;18.80;;;;;;;;;;5050634;28;20033;-45
2021/12/10 10:55:35;;;;;;;29.52;15.30;;;;;;;;;;5050740;28;20025;-44
2021/12/10 10:58:15;;;;;;;31.75;14.98;;;;;;;;;;5050328;28;20087;-47
2021/12/10 11:01:03;;;;;;;33.47;14.95;;;;;;;;;;5050280;28;20471;-41
2021/12/10 11:03:44;;;;;;;35.10;14.65;;;;;;;;;;5050389;28;20036;-42
2021/12/10 11:06:20;;;;;;;33.20;16.23;;;;;;;;;;5050108;28;20029;-43
2021/12/10 11:08:52;;;;;;;43.30;21.20;;;;;;;;;;5050278;28;20033;-43
2021/12/10 11:11:29;;;;;;;42.80;17.95;;;;;;;;;;5050123;28;20537;-43
2021/12/10 11:14:08;;;;;;;37.00;16.60;;;;;;;;;;5050152;28;20061;-42
2021/12/10 11:16:36;;;;;;;42.08;18.77;;;;;;;;;;5050474;28;20116;-46
2021/12/10 11:19:05;;;;;;;40.35;18.42;;;;;;;;;;5050520;28;20029;-47
2021/12/10 11:21:48;;;;;;;44.10;19.05;;;;;;;;;;5050094;28;20036;-47
2021/12/10 11:24:34;;;;;;;41.67;18.60;;;;;;;;;;5050536;28;20124;-48
2021/12/10 11:27:08;;;;;;;39.20;18.00;;;;;;;;;;5050133;28;20024;-45
2021/12/10 11:29:37;;;;;;;37.72;18.45;;;;;;;;;;5050400;28;20025;-47
2021/12/10 11:32:25;;;;;;;38.22;17.55;;;;;;;;;;5049940;28;20131;-43
2021/12/10 11:35:17;;;;;;;38.40;17.40;;;;;;;;;;5042839;28;20140;-44
2021/12/10 11:38:05;;;;;;;36.35;16.90;;;;;;;;;;5049859;28;20052;-44
2021/12/10 11:41:00;;;;;;;39.70;17.80;;;;;;;;;;5053967;28;20032;-45
2021/12/10 11:43:43;;;;;;;42.85;18.50;;;;;;;;;;5036129;28;20051;-46
2021/12/10 11:47:02;;;;;;;40.08;19.08;;;;;;;;;;5053228;28;20532;-45
2021/12/10 11:49:39;;;;;;;37.72;18.42;;;;;;;;;;5052705;28;20033;-43
2021/12/10 11:52:05;;;;;;;37.92;18.50;;;;;;;;;;5050085;28;20743;-46
2021/12/10 11:54:40;;;;;;;44.10;19.65;;;;;;;;;;5053271;28;20021;-48
2021/12/10 11:57:20;;;;;;;42.58;20.17;;;;;;;;;;5050223;28;20021;-44
2021/12/10 12:00:24;;;;;;;42.80;18.80;;;;;;;;;;5013708;28;20034;-45
2021/12/10 12:02:59;;;;;;;38.65;17.27;;;;;;;;;;4990921;28;20044;-42
2021/12/10 12:05:30;;;;;;;39.08;18.13;;;;;;;;;;5013776;28;20076;-48
2021/12/10 12:08:00;;;;;;;36.80;17.80;;;;;;;;;;5035507;28;20021;-48
2021/12/10 12:10:37;;;;;;;26.92;12.98;;;;;;;;;;5013948;28;20058;-49
2021/12/10 12:15:57;;;;;;;37.90;17.02;;;;;;;;;;5015950;28;20549;-43
2021/12/10 12:18:32;;;;;;;37.92;18.08;;;;;;;;;;5053086;28;20112;-44
2021/12/10 12:26:49;;;;;;;37.33;16.33;;;;;;;;;;5053039;28;20044;-48
2021/12/10 12:29:16;;;;;;;30.90;14.85;;;;;;;;;;5053279;28;20538;-48
2021/12/10 12:31:46;;;;;;;36.58;16.83;;;;;;;;;;5053137;28;20033;-47
2021/12/10 12:34:14;;;;;;;40.58;18.15;;;;;;;;;;5052498;28;20021;-49
2021/12/10 12:36:52;;;;;;;36.03;17.38;;;;;;;;;;5052336;28;20075;-44
2021/12/10 12:39:42;;;;;;;34.03;15.00;;;;;;;;;;5051989;28;20064;-42
2021/12/10 12:42:20;;;;;;;30.88;15.43;;;;;;;;;;5052725;28;20075;-48
2021/12/10 12:44:49;;;;;;;39.47;19.23;;;;;;;;;;5051693;28;20057;-48
2021/12/10 12:47:18;;;;;;;38.40;18.20;;;;;;;;;;5052694;28;20067;-39
2021/12/10 12:49:46;;;;;;;37.55;18.38;;;;;;;;;;5052656;28;20732;-47
2021/12/10 12:52:19;;;;;;;32.78;17.60;;;;;;;;;;5052881;28;20040;-46
2021/12/10 12:55:09;;;;;;;33.67;17.27;;;;;;;;;;5052846;28;20033;-48
2021/12/10 12:57:42;;;;;;;34.30;16.23;;;;;;;;;;5052497;28;20032;-41
2021/12/10 13:00:12;;;;;;;40.97;18.65;;;;;;;;;;5052370;28;20025;-42
2021/12/10 13:02:38;;;;;;;39.85;19.70;;;;;;;;;;5052581;28;20028;-43
2021/12/10 13:05:06;;;;;;;43.47;21.55;;;;;;;;;;5052072;28;20090;-48
2021/12/10 13:07:32;;;;;;;40.45;20.10;;;;;;;;;;5052150;28;20033;-48
2021/12/10 13:10:02;;;;;;;47.63;22.83;;;;;;;;;;5051674;28;20145;-47
2021/12/10 13:13:11;;;;;;;42.85;19.52;;;;;;;;;;5052009;28;20028;-45
2021/12/10 13:15:28;;;;;;;41.63;19.27;;;;;;;;;;5050771;28;20041;-45
2021/12/10 13:17:59;;;;;;;38.20;19.55;;;;;;;;;;5051583;28;20482;-49
2021/12/10 13:20:28;;;;;;;39.85;20.77;;;;;;;;;;5051710;28;20078;-44
2021/12/10 13:22:57;;;;;;;41.28;19.70;;;;;;;;;;5051892;28;20025;-46
2021/12/10 13:25:26;;;;;;;43.40;20.08;;;;;;;;;;5051730;28;20082;-46
2021/12/10 13:27:52;;;;;;;39.95;21.92;;;;;;;;;;5046797;28;20041;-46
2021/12/10 13:30:23;;;;;;;40.15;20.15;;;;;;;;;;5051334;28;20025;-47
2021/12/10 13:32:51;;;;;;;40.05;19.85;;;;;;;;;;5045926;28;20029;-46
2021/12/10 13:35:19;;;;;;;38.42;18.00;;;;;;;;;;5051456;28;20045;-45
2021/12/10 13:37:46;;;;;;;37.55;18.13;;;;;;;;;;5051929;28;20025;-40
2021/12/10 13:40:15;;;;;;;35.70;17.50;;;;;;;;;;5051939;28;20036;-47
2021/12/10 13:42:41;;;;;;;41.92;18.80;;;;;;;;;;5051645;28;20040;-46
2021/12/10 13:45:07;;;;;;;40.67;19.83;;;;;;;;;;5051865;28;20636;-46
2021/12/10 13:47:35;;;;;;;36.78;18.33;;;;;;;;;;5051625;28;20374;-44
2021/12/10 13:50:01;;;;;;;40.17;18.23;;;;;;;;;;5051816;28;20382;-45
2021/12/10 13:52:55;;;;;;;37.38;18.60;;;;;;;;;;5051677;28;20025;-48
2021/12/10 13:55:30;;;;;;;31.55;15.63;;;;;;;;;;5048929;28;20072;-48
2021/12/10 13:58:41;;;;;;;28.33;14.00;;;;;;;;;;5050325;28;20044;-48
2021/12/10 14:01:06;;;;;;;;;;;;;;;;;;5051776;28;20549;-43
2021/12/10 14:03:44;;;;;;;18.05;9.57;;;;;;;;;;5051429;28;20007;-49
2021/12/10 14:06:12;;;;;;;35.58;16.48;;;;;;;;;;5051141;28;20039;-45
2021/12/10 14:08:39;;;;;;;44.67;18.85;;;;;;;;;;5051292;28;20032;-47
2021/12/10 14:11:26;;;;;;;34.67;16.60;;;;;;;;;;5051001;28;20111;-45
2021/12/10 14:14:07;;;;;;;34.13;14.95;;;;;;;;;;5051140;28;20060;-46
2021/12/10 14:16:55;;;;;;;36.35;15.10;;;;;;;;;;5050311;28;20478;-45
2021/12/10 14:19:29;;;;;;;36.10;17.08;;;;;;;;;;5046918;28;20041;-47
2021/12/10 14:21:55;;;;;;;33.03;15.57;;;;;;;;;;5050669;28;20064;-47
2021/12/10 14:24:40;;;;;;;35.67;15.48;;;;;;;;;;5032406;28;20059;-49
2021/12/10 14:27:08;;;;;;;13.48;7.35;;;;;;;;;;5047731;28;20466;-47
2021/12/10 14:29:34;;;;;;;23.08;11.45;;;;;;;;;;5051018;28;20033;-48
2021/12/10 14:32:00;;;;;;;22.08;10.25;;;;;;;;;;5051046;28;20030;-44
2021/12/10 14:34:26;;;;;;;31.20;15.27;;;;;;;;;;5050722;28;20056;-47
2021/12/10 14:37:11;;;;;;;31.20;13.15;;;;;;;;;;5050926;28;20485;-49
2021/12/10 14:39:37;;;;;;;33.85;15.88;;;;;;;;;;5032452;28;20048;-46
2021/12/10 14:42:08;;;;;;;30.55;14.77;;;;;;;;;;5050647;28;20387;-46
2021/12/10 14:44:34;;;;;;;20.98;10.45;;;;;;;;;;5050604;28;20037;-44
2021/12/10 14:47:02;;;;;;;22.80;11.88;;;;;;;;;;5050238;28;20532;-43
2021/12/10 14:49:38;;;;;;;23.17;11.65;;;;;;;;;;5050269;28;20037;-41
2021/12/10 14:52:33;;;;;;;21.90;10.77;;;;;;;;;;5050484;28;20040;-44
2021/12/10 14:55:16;;;;;;;12.32;5.43;;;;;;;;;;5050782;28;20075;-48
2021/12/10 14:57:47;;;;;;;27.98;6.63;;;;;;;;;;5050668;28;20120;-48